• Join FlightAware (Why Join?)
  • Login
  • US Flag 
01:35PM EDT


 

Airport Tracker/Info


-or-


 

Live Flight TrackerFlight Track Log ✈ DAL6055 ✈ 09-Apr-2013 ✈ KDTW - KSDF

Flight Track Log - Related Links

Times and Time Zones

All times are in EDT time to prevent confusion due to time zone crossing. See the DAL6055 flight status page for this flight to view local times or setup timezone preferences in your user account.

Time Position Orientation Groundspeed Altitude Reporting Facility
EDT Latitude Longitude Course Direction KTS MPH feet Rate Location/Type
09:26AM 42.1994 -83.3581 199° South 164 189 1,300  Level Cleveland Center
09:27AM 42.1447 -83.3836 199° South 222 255 3,300 1,920 Climbing Cleveland Center
09:28AM 42.0797 -83.4006 191° South 251 289 5,500 2,280 Climbing Cleveland Center
09:29AM 41.9925 -83.3853 173° South 268 308 8,500 2,220 Climbing Cleveland Center
09:30AM 41.9156 -83.3764 175° South 276 318 10,500 1,800 Climbing Cleveland Center
09:31AM 41.8344 -83.3672 175° South 276 318 12,100 1,500 Climbing Cleveland Center
09:32AM 41.7450 -83.3522 173° South 302 348 13,600 1,560 Climbing Cleveland Center
09:33AM 41.6536 -83.3428 176° South 323 372 15,300 1,500 Climbing Cleveland Center
09:34AM 41.5578 -83.3386 178° South 341 392 16,600 1,380 Climbing Cleveland Center
09:35AM 41.4694 -83.3683 194° South 341 392 18,100 1,680 Climbing Cleveland Center
09:36AM 41.3850 -83.4172 203° Southwest 336 387 20,000 1,800 Climbing Cleveland Center
09:37AM 41.3003 -83.4661 203° Southwest 336 387 21,800 1,860 Climbing Cleveland Center
09:38AM 41.2178 -83.5147 204° Southwest 336 387 23,700 1,080 Climbing Cleveland Center
09:39AM 41.1289 -83.5661 204° Southwest 336 387 24,000 60 Climbing Cleveland Center
09:41AM 40.8950 -83.6983 203° Southwest 396 456 24,000  Level Indianapolis Center
09:42AM 40.7967 -83.7553 204° Southwest 385 443 24,000  Level Indianapolis Center
09:43AM 40.7000 -83.8097 203° Southwest 376 433 24,000  Level Indianapolis Center
09:44AM 40.6031 -83.8642 203° Southwest 377 434 24,000  Level Indianapolis Center
09:45AM 40.5058 -83.9197 203° Southwest 377 434 24,000  Level Indianapolis Center
09:46AM 40.4092 -83.9742 203° Southwest 377 434 24,000  Level Indianapolis Center
09:47AM 40.2972 -84.0375 203° Southwest 376 433 24,000  Level Indianapolis Center
09:48AM 40.2011 -84.0889 202° Southwest 371 427 24,000  Level Indianapolis Center
09:50AM 40.1031 -84.1414 202° Southwest 378 435 24,000  Level Indianapolis Center
09:51AM 40.0050 -84.1928 202° Southwest 378 435 24,000 -240 Level Indianapolis Center
09:52AM 39.9069 -84.2436 202° Southwest 377 434 23,600 -780 Descending Indianapolis Center
09:53AM 39.7956 -84.3014 202° Southwest 369 425 22,400 -1,140 Descending Indianapolis Center
09:54AM 39.7028 -84.3497 202° Southwest 359 413 21,300 -1,020 Descending Indianapolis Center
09:55AM 39.6125 -84.3972 202° Southwest 352 405 20,300 -660 Descending Indianapolis Center
09:56AM 39.5244 -84.4431 202° Southwest 341 392 20,000 -180 Descending Indianapolis Center
09:57AM 39.4350 -84.4889 202° Southwest 343 395 20,000  Level Indianapolis Center
09:58AM 39.3447 -84.5358 202° Southwest 347 399 20,000  Level Indianapolis Center
09:59AM 39.2522 -84.5831 202° Southwest 352 405 20,000  Level Indianapolis Center
10:00AM 39.1478 -84.6372 202° Southwest 344 396 20,000  Level Indianapolis Center
10:00AM 39.1167 -84.6500 198° South 343 395 20,000  Level Cincinnati TRACON
10:01AM 39.0333 -84.6833 197° South 338 389 20,000 -840 Level Cincinnati TRACON
10:02AM 38.9667 -84.7500 218° Southwest 330 380 18,400 -1,800 Descending Cincinnati TRACON
10:03AM 38.9000 -84.8167 218° Southwest 322 371 16,500 -1,980 Descending Cincinnati TRACON
10:04AM 38.8347 -84.8800 217° Southwest 310 357 14,800 -1,320 Descending Indianapolis Center
10:05AM 38.7681 -84.9436 217° Southwest 299 344 14,000 -960 Descending Indianapolis Center
10:06AM 38.7058 -85.0056 218° Southwest 285 328 12,900 -1,020 Descending Indianapolis Center
10:07AM 38.6356 -85.0706 216° Southwest 280 322 12,000 -540 Descending Indianapolis Center
10:08AM 38.5761 -85.1278 217° Southwest 269 310 11,900 -600 Descending Indianapolis Center
10:09AM 38.5431 -85.1603 218° Southwest 269 310 11,100 -1,560 Descending FAA TRACON SMA TRACON (SMA)
10:09AM 38.5250 -85.1769 216° Southwest 263 303 10,600 -1,680 Descending FAA TRACON SMA TRACON (SMA)
10:09AM 38.5042 -85.1981 218° Southwest 253 291 10,000 -1,500 Descending FAA TRACON SMA TRACON (SMA)
10:10AM 38.4869 -85.2139 216° Southwest 249 287 9,600 -1,380 Descending FAA TRACON SMA TRACON (SMA)
10:10AM 38.4703 -85.2292 216° Southwest 242 278 9,100 -1,620 Descending FAA TRACON SMA TRACON (SMA)
10:10AM 38.4497 -85.2489 217° Southwest 239 275 8,500 -1,500 Descending FAA TRACON SMA TRACON (SMA)
10:11AM 38.4333 -85.2639 216° Southwest 237 273 8,100 -1,440 Descending FAA TRACON SMA TRACON (SMA)
10:11AM 38.4172 -85.2792 217° Southwest 234 269 7,600 -1,680 Descending FAA TRACON SMA TRACON (SMA)
10:11AM 38.3978 -85.2986 218° Southwest 233 268 7,000 -1,500 Descending FAA TRACON SMA TRACON (SMA)
10:12AM 38.3808 -85.3136 215° Southwest 236 272 6,600 -1,320 Descending FAA TRACON SMA TRACON (SMA)
10:12AM 38.3650 -85.3294 218° Southwest 237 273 6,100 -900 Descending FAA TRACON SMA TRACON (SMA)
10:12AM 38.3444 -85.3486 216° Southwest 238 274 6,000 -180 Descending FAA TRACON SMA TRACON (SMA)
10:13AM 38.3278 -85.3647 217° Southwest 241 277 6,000  Level FAA TRACON SMA TRACON (SMA)
10:13AM 38.3114 -85.3800 216° Southwest 240 276 6,000  Level FAA TRACON SMA TRACON (SMA)
10:13AM 38.2908 -85.3994 217° Southwest 239 275 6,000  Level FAA TRACON SMA TRACON (SMA)
10:14AM 38.2742 -85.4153 217° Southwest 240 276 6,000  Level FAA TRACON SMA TRACON (SMA)
10:14AM 38.2589 -85.4325 222° Southwest 242 278 6,000  Level FAA TRACON SMA TRACON (SMA)
10:14AM 38.2556 -85.4633 262° West 248 285 6,000  Level FAA TRACON SMA TRACON (SMA)
10:15AM 38.2681 -85.4853 306° West 258 297 6,000  Level FAA TRACON SMA TRACON (SMA)
10:15AM 38.2847 -85.5022 321° Northwest 254 292 6,000  Level FAA TRACON SMA TRACON (SMA)
10:15AM 38.3058 -85.5233 322° Northwest 249 287 6,000  Level FAA TRACON SMA TRACON (SMA)
10:16AM 38.3222 -85.5389 323° Northwest 243 280 6,000  Level FAA TRACON SMA TRACON (SMA)
10:16AM 38.3422 -85.5594 321° Northwest 240 276 6,000  Level FAA TRACON SMA TRACON (SMA)
10:16AM 38.3583 -85.5750 323° Northwest 238 274 6,000  Level FAA TRACON SMA TRACON (SMA)
10:17AM 38.3742 -85.5911 321° Northwest 238 274 6,000  Level FAA TRACON SMA TRACON (SMA)
10:17AM 38.3931 -85.6114 320° Northwest 235 270 6,000 -300 Level FAA TRACON SMA TRACON (SMA)
10:17AM 38.3981 -85.6339 286° West 235 270 5,800 -1,080 Descending FAA TRACON SMA TRACON (SMA)
10:18AM 38.3953 -85.6561 261° West 219 252 5,300 -1,680 Descending FAA TRACON SMA TRACON (SMA)
10:18AM 38.3914 -85.6847 260° West 211 243 4,700 -1,680 Descending FAA TRACON SMA TRACON (SMA)
10:18AM 38.3867 -85.7064 254° West 211 243 4,200 -1,380 Descending FAA TRACON SMA TRACON (SMA)
10:19AM 38.3767 -85.7250 236° Southwest 209 241 3,800 -1,560 Descending FAA TRACON SMA TRACON (SMA)
10:19AM 38.3611 -85.7458 226° Southwest 209 241 3,200 -1,200 Descending FAA TRACON SMA TRACON (SMA)
10:19AM 38.3475 -85.7592 218° Southwest 205 236 3,000 -900 Descending FAA TRACON SMA TRACON (SMA)
10:20AM 38.3339 -85.7711 215° Southwest 195 224 2,600 -780 Descending FAA TRACON SMA TRACON (SMA)
10:20AM 38.3164 -85.7806 203° Southwest 182 209 2,500 -180 Descending FAA TRACON SMA TRACON (SMA)
10:20AM 38.3017 -85.7842 191° South 174 200 2,500  Level FAA TRACON SMA TRACON (SMA)
10:21AM 38.2875 -85.7814 171° South 171 197 2,500 -480 Level FAA TRACON SMA TRACON (SMA)
10:21AM 38.2692 -85.7761 167° South 173 199 2,200 -900 Descending FAA TRACON SMA TRACON (SMA)
10:21AM 38.2550 -85.7714 165° South 172 198 1,900 -780 Descending FAA TRACON SMA TRACON (SMA)
10:22AM 38.2422 -85.7672 166° South 159 183 1,700 -780 Descending FAA TRACON SMA TRACON (SMA)
10:22AM 38.2283 -85.7622 164° South 139 160 1,400 -780 Descending FAA TRACON SMA TRACON (SMA)
10:22AM 38.2169 -85.7586 166° South 136 157 1,200 -780 Descending FAA TRACON SMA TRACON (SMA)
10:23AM 38.2056 -85.7550 166° South 135 155 900 -780 Descending FAA TRACON SMA TRACON (SMA)
10:23AM 38.1919 -85.7506 166° South 134 154 700 -600 Descending FAA TRACON SMA TRACON (SMA)